sensor_id;sensor_type;location;lat;lon;timestamp;temperature;humidity
28823;DHT22;15961;54.678;9.110;2023-02-01T00:02:05;5.30;99.90
28823;DHT22;15961;54.678;9.110;2023-02-01T00:04:31;5.30;99.90
28823;DHT22;15961;54.678;9.110;2023-02-01T00:06:56;5.30;99.90
28823;DHT22;15961;54.678;9.110;2023-02-01T00:09:22;5.20;99.90
28823;DHT22;15961;54.678;9.110;2023-02-01T00:11:47;5.20;99.90
28823;DHT22;15961;54.678;9.110;2023-02-01T00:14:13;5.20;99.90
28823;DHT22;15961;54.678;9.110;2023-02-01T00:16:39;5.20;99.90
28823;DHT22;15961;54.678;9.110;2023-02-01T00:19:11;5.20;99.90
28823;DHT22;15961;54.678;9.110;2023-02-01T00:21:37;5.20;99.90
28823;DHT22;15961;54.678;9.110;2023-02-01T00:24:03;5.20;99.90
28823;DHT22;15961;54.678;9.110;2023-02-01T00:26:34;5.20;99.90
28823;DHT22;15961;54.678;9.110;2023-02-01T00:29:01;5.20;99.90
28823;DHT22;15961;54.678;9.110;2023-02-01T00:31:27;5.30;99.90
28823;DHT22;15961;54.678;9.110;2023-02-01T00:33:53;5.30;99.90
28823;DHT22;15961;54.678;9.110;2023-02-01T00:36:18;5.40;99.90
28823;DHT22;15961;54.678;9.110;2023-02-01T00:38:44;5.40;99.90
28823;DHT22;15961;54.678;9.110;2023-02-01T00:41:18;5.30;99.90
28823;DHT22;15961;54.678;9.110;2023-02-01T00:43:45;5.40;99.90
28823;DHT22;15961;54.678;9.110;2023-02-01T00:46:12;5.50;99.90
28823;DHT22;15961;54.678;9.110;2023-02-01T00:48:39;5.50;99.90
28823;DHT22;15961;54.678;9.110;2023-02-01T00:51:12;5.50;99.90
28823;DHT22;15961;54.678;9.110;2023-02-01T00:53:38;5.50;99.90
28823;DHT22;15961;54.678;9.110;2023-02-01T00:56:04;5.60;99.90
28823;DHT22;15961;54.678;9.110;2023-02-01T00:58:31;5.60;99.90
28823;DHT22;15961;54.678;9.110;2023-02-01T01:01:10;5.50;99.90
28823;DHT22;15961;54.678;9.110;2023-02-01T01:03:41;5.60;99.90
28823;DHT22;15961;54.678;9.110;2023-02-01T01:06:09;5.50;99.90
28823;DHT22;15961;54.678;9.110;2023-02-01T01:08:36;5.40;99.90
28823;DHT22;15961;54.678;9.110;2023-02-01T01:11:10;5.50;99.90
28823;DHT22;15961;54.678;9.110;2023-02-01T01:13:36;5.40;99.90
28823;DHT22;15961;54.678;9.110;2023-02-01T01:16:04;5.50;99.90
28823;DHT22;15961;54.678;9.110;2023-02-01T01:18:31;5.50;99.90
28823;DHT22;15961;54.678;9.110;2023-02-01T01:20:58;5.50;99.90
28823;DHT22;15961;54.678;9.110;2023-02-01T01:23:24;5.50;99.90
28823;DHT22;15961;54.678;9.110;2023-02-01T01:25:50;5.40;99.90
28823;DHT22;15961;54.678;9.110;2023-02-01T01:28:15;5.50;99.90
28823;DHT22;15961;54.678;9.110;2023-02-01T01:30:41;5.50;99.90
28823;DHT22;15961;54.678;9.110;2023-02-01T01:33:06;5.50;99.90
28823;DHT22;15961;54.678;9.110;2023-02-01T01:35:33;5.50;99.90
28823;DHT22;15961;54.678;9.110;2023-02-01T01:37:59;5.50;99.90
28823;DHT22;15961;54.678;9.110;2023-02-01T01:40:25;5.50;99.90
28823;DHT22;15961;54.678;9.110;2023-02-01T01:42:51;5.50;99.90
28823;DHT22;15961;54.678;9.110;2023-02-01T01:45:31;5.50;99.90
28823;DHT22;15961;54.678;9.110;2023-02-01T01:48:05;5.50;99.90
28823;DHT22;15961;54.678;9.110;2023-02-01T01:50:46;5.50;99.90
28823;DHT22;15961;54.678;9.110;2023-02-01T01:53:18;5.50;99.90
28823;DHT22;15961;54.678;9.110;2023-02-01T01:55:47;5.50;99.90
28823;DHT22;15961;54.678;9.110;2023-02-01T01:58:19;5.50;99.90
28823;DHT22;15961;54.678;9.110;2023-02-01T02:00:46;5.50;99.90
28823;DHT22;15961;54.678;9.110;2023-02-01T02:03:19;5.60;99.90
28823;DHT22;15961;54.678;9.110;2023-02-01T02:05:48;5.50;99.90
28823;DHT22;15961;54.678;9.110;2023-02-01T02:08:15;5.50;99.90
28823;DHT22;15961;54.678;9.110;2023-02-01T02:10:40;5.50;99.90
28823;DHT22;15961;54.678;9.110;2023-02-01T02:13:45;5.50;99.90
28823;DHT22;15961;54.678;9.110;2023-02-01T02:16:26;5.50;99.90
28823;DHT22;15961;54.678;9.110;2023-02-01T02:36:28;5.60;99.90
28823;DHT22;15961;54.678;9.110;2023-02-01T02:44:34;5.50;99.90
28823;DHT22;15961;54.678;9.110;2023-02-01T02:47:40;5.50;99.90
28823;DHT22;15961;54.678;9.110;2023-02-01T02:50:17;5.60;99.90
28823;DHT22;15961;54.678;9.110;2023-02-01T02:53:17;5.60;99.90
28823;DHT22;15961;54.678;9.110;2023-02-01T02:56:04;5.60;99.90
28823;DHT22;15961;54.678;9.110;2023-02-01T02:58:49;5.60;99.90
28823;DHT22;15961;54.678;9.110;2023-02-01T03:01:34;5.70;99.90
28823;DHT22;15961;54.678;9.110;2023-02-01T03:04:18;5.60;99.90
28823;DHT22;15961;54.678;9.110;2023-02-01T03:06:45;5.60;99.90
28823;DHT22;15961;54.678;9.110;2023-02-01T03:09:26;5.50;99.90
28823;DHT22;15961;54.678;9.110;2023-02-01T03:11:57;5.50;99.90
28823;DHT22;15961;54.678;9.110;2023-02-01T03:14:44;5.50;99.90
28823;DHT22;15961;54.678;9.110;2023-02-01T03:17:17;5.60;99.90
28823;DHT22;15961;54.678;9.110;2023-02-01T03:19:48;5.60;99.90
28823;DHT22;15961;54.678;9.110;2023-02-01T03:22:20;5.60;99.90
28823;DHT22;15961;54.678;9.110;2023-02-01T03:25:12;5.60;99.90
28823;DHT22;15961;54.678;9.110;2023-02-01T03:32:44;5.50;99.90
28823;DHT22;15961;54.678;9.110;2023-02-01T03:35:33;5.50;99.90
28823;DHT22;15961;54.678;9.110;2023-02-01T03:41:28;5.50;99.90
28823;DHT22;15961;54.678;9.110;2023-02-01T03:44:04;5.50;99.90
28823;DHT22;15961;54.678;9.110;2023-02-01T03:46:41;5.50;99.90
28823;DHT22;15961;54.678;9.110;2023-02-01T03:49:11;5.40;99.90
28823;DHT22;15961;54.678;9.110;2023-02-01T03:51:40;5.40;99.90
28823;DHT22;15961;54.678;9.110;2023-02-01T03:54:08;5.40;99.90
28823;DHT22;15961;54.678;9.110;2023-02-01T03:56:37;5.40;99.90
28823;DHT22;15961;54.678;9.110;2023-02-01T03:59:03;5.40;99.90
28823;DHT22;15961;54.678;9.110;2023-02-01T04:01:30;5.50;99.90
28823;DHT22;15961;54.678;9.110;2023-02-01T04:03:57;5.60;99.90
28823;DHT22;15961;54.678;9.110;2023-02-01T04:06:24;5.50;99.90
28823;DHT22;15961;54.678;9.110;2023-02-01T04:08:50;5.50;99.90
28823;DHT22;15961;54.678;9.110;2023-02-01T04:11:16;5.60;99.90
28823;DHT22;15961;54.678;9.110;2023-02-01T04:13:41;5.60;99.90
28823;DHT22;15961;54.678;9.110;2023-02-01T04:16:07;5.60;99.90
28823;DHT22;15961;54.678;9.110;2023-02-01T04:18:32;5.60;99.90
28823;DHT22;15961;54.678;9.110;2023-02-01T04:20:58;5.60;99.90
28823;DHT22;15961;54.678;9.110;2023-02-01T04:23:24;5.60;99.90
28823;DHT22;15961;54.678;9.110;2023-02-01T04:25:49;5.50;99.90
28823;DHT22;15961;54.678;9.110;2023-02-01T04:28:15;5.50;99.90
28823;DHT22;15961;54.678;9.110;2023-02-01T04:30:40;5.40;99.90
28823;DHT22;15961;54.678;9.110;2023-02-01T04:33:06;5.40;99.90
28823;DHT22;15961;54.678;9.110;2023-02-01T04:35:31;5.30;99.90
28823;DHT22;15961;54.678;9.110;2023-02-01T04:37:57;5.30;99.90
28823;DHT22;15961;54.678;9.110;2023-02-01T04:40:22;5.30;99.90
28823;DHT22;15961;54.678;9.110;2023-02-01T04:42:48;5.30;99.90
28823;DHT22;15961;54.678;9.110;2023-02-01T04:45:13;5.30;99.90
28823;DHT22;15961;54.678;9.110;2023-02-01T04:47:39;5.20;99.90
28823;DHT22;15961;54.678;9.110;2023-02-01T04:50:05;5.20;99.90
28823;DHT22;15961;54.678;9.110;2023-02-01T04:52:31;5.20;99.90
28823;DHT22;15961;54.678;9.110;2023-02-01T04:54:57;5.20;99.90
28823;DHT22;15961;54.678;9.110;2023-02-01T04:57:25;5.20;99.90
28823;DHT22;15961;54.678;9.110;2023-02-01T04:59:50;5.20;99.90
28823;DHT22;15961;54.678;9.110;2023-02-01T05:02:16;5.20;99.90
28823;DHT22;15961;54.678;9.110;2023-02-01T05:04:41;5.20;99.90
28823;DHT22;15961;54.678;9.110;2023-02-01T05:07:07;5.20;99.90
28823;DHT22;15961;54.678;9.110;2023-02-01T05:09:32;5.20;99.90
28823;DHT22;15961;54.678;9.110;2023-02-01T05:11:58;5.20;99.90
28823;DHT22;15961;54.678;9.110;2023-02-01T05:14:42;5.20;99.90
28823;DHT22;15961;54.678;9.110;2023-02-01T05:17:07;5.10;99.90
28823;DHT22;15961;54.678;9.110;2023-02-01T05:19:33;5.10;99.90
28823;DHT22;15961;54.678;9.110;2023-02-01T05:21:58;5.10;99.90
28823;DHT22;15961;54.678;9.110;2023-02-01T05:24:24;5.10;99.90
28823;DHT22;15961;54.678;9.110;2023-02-01T05:26:49;5.10;99.90
28823;DHT22;15961;54.678;9.110;2023-02-01T05:29:16;5.20;99.90
28823;DHT22;15961;54.678;9.110;2023-02-01T05:31:45;5.30;99.90
28823;DHT22;15961;54.678;9.110;2023-02-01T05:34:11;5.30;99.90
28823;DHT22;15961;54.678;9.110;2023-02-01T05:36:37;5.30;99.90
28823;DHT22;15961;54.678;9.110;2023-02-01T05:39:02;5.30;99.90
28823;DHT22;15961;54.678;9.110;2023-02-01T05:41:28;5.40;99.90
28823;DHT22;15961;54.678;9.110;2023-02-01T05:43:53;5.30;99.90
28823;DHT22;15961;54.678;9.110;2023-02-01T05:46:19;5.30;99.90
28823;DHT22;15961;54.678;9.110;2023-02-01T05:48:45;5.40;99.90
28823;DHT22;15961;54.678;9.110;2023-02-01T05:51:11;5.30;99.90
28823;DHT22;15961;54.678;9.110;2023-02-01T05:53:36;5.30;99.90
28823;DHT22;15961;54.678;9.110;2023-02-01T05:56:02;5.30;99.90
28823;DHT22;15961;54.678;9.110;2023-02-01T05:58:28;5.40;99.90
28823;DHT22;15961;54.678;9.110;2023-02-01T06:00:54;5.50;99.90
28823;DHT22;15961;54.678;9.110;2023-02-01T06:03:20;5.50;99.90
28823;DHT22;15961;54.678;9.110;2023-02-01T06:05:47;5.50;99.90
28823;DHT22;15961;54.678;9.110;2023-02-01T06:08:13;5.50;99.90
28823;DHT22;15961;54.678;9.110;2023-02-01T06:10:39;5.60;99.90
28823;DHT22;15961;54.678;9.110;2023-02-01T06:13:05;5.60;99.90
28823;DHT22;15961;54.678;9.110;2023-02-01T06:15:31;5.60;99.90
28823;DHT22;15961;54.678;9.110;2023-02-01T06:17:57;5.70;99.90
28823;DHT22;15961;54.678;9.110;2023-02-01T06:20:23;5.70;99.90
28823;DHT22;15961;54.678;9.110;2023-02-01T06:22:49;5.70;99.90
28823;DHT22;15961;54.678;9.110;2023-02-01T06:25:15;5.60;99.90
28823;DHT22;15961;54.678;9.110;2023-02-01T06:27:42;5.60;99.90
28823;DHT22;15961;54.678;9.110;2023-02-01T06:30:10;5.60;99.90
28823;DHT22;15961;54.678;9.110;2023-02-01T06:32:39;5.60;99.90
28823;DHT22;15961;54.678;9.110;2023-02-01T06:35:09;5.60;99.90
28823;DHT22;15961;54.678;9.110;2023-02-01T06:37:41;5.50;99.90
28823;DHT22;15961;54.678;9.110;2023-02-01T06:40:08;5.50;99.90
28823;DHT22;15961;54.678;9.110;2023-02-01T06:42:34;5.50;99.90
28823;DHT22;15961;54.678;9.110;2023-02-01T06:44:59;5.40;99.90
28823;DHT22;15961;54.678;9.110;2023-02-01T06:47:25;5.30;99.90
28823;DHT22;15961;54.678;9.110;2023-02-01T06:49:50;5.30;99.90
28823;DHT22;15961;54.678;9.110;2023-02-01T06:52:16;5.30;99.90
28823;DHT22;15961;54.678;9.110;2023-02-01T06:54:41;5.20;99.90
28823;DHT22;15961;54.678;9.110;2023-02-01T06:57:07;5.20;99.90
28823;DHT22;15961;54.678;9.110;2023-02-01T06:59:32;5.20;99.90
28823;DHT22;15961;54.678;9.110;2023-02-01T07:01:58;5.30;99.90
28823;DHT22;15961;54.678;9.110;2023-02-01T07:04:23;5.20;99.90
28823;DHT22;15961;54.678;9.110;2023-02-01T07:06:49;5.20;99.90
28823;DHT22;15961;54.678;9.110;2023-02-01T07:09:14;5.30;99.90
28823;DHT22;15961;54.678;9.110;2023-02-01T07:11:40;5.40;99.90
28823;DHT22;15961;54.678;9.110;2023-02-01T07:14:12;5.40;99.90
28823;DHT22;15961;54.678;9.110;2023-02-01T07:16:38;5.50;99.90
28823;DHT22;15961;54.678;9.110;2023-02-01T07:19:03;5.50;99.90
28823;DHT22;15961;54.678;9.110;2023-02-01T07:21:29;5.50;99.90
28823;DHT22;15961;54.678;9.110;2023-02-01T07:23:55;5.50;99.90
28823;DHT22;15961;54.678;9.110;2023-02-01T07:26:21;5.40;99.90
28823;DHT22;15961;54.678;9.110;2023-02-01T07:28:47;5.40;99.90
28823;DHT22;15961;54.678;9.110;2023-02-01T07:31:18;5.40;99.90
28823;DHT22;15961;54.678;9.110;2023-02-01T07:33:46;5.30;99.90
28823;DHT22;15961;54.678;9.110;2023-02-01T07:36:14;5.40;99.90
28823;DHT22;15961;54.678;9.110;2023-02-01T07:38:39;5.40;99.90
28823;DHT22;15961;54.678;9.110;2023-02-01T07:41:07;5.40;99.90
28823;DHT22;15961;54.678;9.110;2023-02-01T07:43:34;5.30;99.90
28823;DHT22;15961;54.678;9.110;2023-02-01T07:46:00;5.30;99.90
28823;DHT22;15961;54.678;9.110;2023-02-01T07:48:26;5.40;99.90
28823;DHT22;15961;54.678;9.110;2023-02-01T07:51:08;5.40;99.90
28823;DHT22;15961;54.678;9.110;2023-02-01T07:53:34;5.40;99.90
28823;DHT22;15961;54.678;9.110;2023-02-01T07:56:00;5.40;99.90
28823;DHT22;15961;54.678;9.110;2023-02-01T07:58:26;5.40;99.90
28823;DHT22;15961;54.678;9.110;2023-02-01T08:00:52;5.50;99.90
28823;DHT22;15961;54.678;9.110;2023-02-01T08:03:37;5.70;99.90
28823;DHT22;15961;54.678;9.110;2023-02-01T08:06:03;5.70;99.90
28823;DHT22;15961;54.678;9.110;2023-02-01T08:08:29;5.60;99.90
28823;DHT22;15961;54.678;9.110;2023-02-01T08:11:02;5.60;99.90
28823;DHT22;15961;54.678;9.110;2023-02-01T08:13:28;5.70;99.90
28823;DHT22;15961;54.678;9.110;2023-02-01T08:15:58;5.70;99.90
28823;DHT22;15961;54.678;9.110;2023-02-01T08:18:24;5.80;99.90
28823;DHT22;15961;54.678;9.110;2023-02-01T08:20:49;5.70;99.90
28823;DHT22;15961;54.678;9.110;2023-02-01T08:23:16;5.30;99.90
28823;DHT22;15961;54.678;9.110;2023-02-01T08:25:42;5.00;99.90
28823;DHT22;15961;54.678;9.110;2023-02-01T08:28:08;4.90;99.90
28823;DHT22;15961;54.678;9.110;2023-02-01T08:30:36;4.90;99.90
28823;DHT22;15961;54.678;9.110;2023-02-01T08:33:03;5.00;99.90
28823;DHT22;15961;54.678;9.110;2023-02-01T08:35:28;5.00;99.90
28823;DHT22;15961;54.678;9.110;2023-02-01T08:37:54;4.90;99.90
28823;DHT22;15961;54.678;9.110;2023-02-01T08:40:19;4.90;99.90
28823;DHT22;15961;54.678;9.110;2023-02-01T08:42:46;5.10;99.90
28823;DHT22;15961;54.678;9.110;2023-02-01T08:45:20;5.20;99.90
28823;DHT22;15961;54.678;9.110;2023-02-01T08:47:46;5.30;99.90
28823;DHT22;15961;54.678;9.110;2023-02-01T08:50:12;5.30;99.90
28823;DHT22;15961;54.678;9.110;2023-02-01T08:52:38;5.30;99.90
28823;DHT22;15961;54.678;9.110;2023-02-01T08:55:05;5.50;99.90
28823;DHT22;15961;54.678;9.110;2023-02-01T08:57:31;5.60;99.90
28823;DHT22;15961;54.678;9.110;2023-02-01T08:59:56;5.70;99.90
28823;DHT22;15961;54.678;9.110;2023-02-01T09:02:22;5.80;99.90
28823;DHT22;15961;54.678;9.110;2023-02-01T09:04:47;5.80;99.90
28823;DHT22;15961;54.678;9.110;2023-02-01T09:07:13;5.80;99.90
28823;DHT22;15961;54.678;9.110;2023-02-01T09:09:38;5.90;99.90
28823;DHT22;15961;54.678;9.110;2023-02-01T09:12:04;5.90;99.90
28823;DHT22;15961;54.678;9.110;2023-02-01T09:14:30;6.00;99.90
28823;DHT22;15961;54.678;9.110;2023-02-01T09:16:55;6.00;99.90
28823;DHT22;15961;54.678;9.110;2023-02-01T09:19:21;6.10;99.90
28823;DHT22;15961;54.678;9.110;2023-02-01T09:21:47;6.20;99.90
28823;DHT22;15961;54.678;9.110;2023-02-01T09:24:13;6.30;99.90
28823;DHT22;15961;54.678;9.110;2023-02-01T09:26:39;6.30;99.90
28823;DHT22;15961;54.678;9.110;2023-02-01T09:29:05;6.30;99.90
28823;DHT22;15961;54.678;9.110;2023-02-01T09:31:35;6.20;99.90
28823;DHT22;15961;54.678;9.110;2023-02-01T09:34:01;6.10;99.90
28823;DHT22;15961;54.678;9.110;2023-02-01T09:36:27;6.10;99.90
28823;DHT22;15961;54.678;9.110;2023-02-01T09:38:52;6.00;99.90
28823;DHT22;15961;54.678;9.110;2023-02-01T09:41:45;6.00;99.90
28823;DHT22;15961;54.678;9.110;2023-02-01T09:46:59;6.10;99.90
28823;DHT22;15961;54.678;9.110;2023-02-01T09:49:37;6.20;99.90
28823;DHT22;15961;54.678;9.110;2023-02-01T09:52:10;6.30;99.90
28823;DHT22;15961;54.678;9.110;2023-02-01T09:54:42;6.40;99.90
28823;DHT22;15961;54.678;9.110;2023-02-01T09:57:16;6.50;99.90
28823;DHT22;15961;54.678;9.110;2023-02-01T09:59:49;6.60;99.90
28823;DHT22;15961;54.678;9.110;2023-02-01T10:02:21;6.60;99.90
28823;DHT22;15961;54.678;9.110;2023-02-01T10:04:48;6.60;99.90
28823;DHT22;15961;54.678;9.110;2023-02-01T10:10:23;6.70;99.90
28823;DHT22;15961;54.678;9.110;2023-02-01T10:15:56;6.70;99.90
28823;DHT22;15961;54.678;9.110;2023-02-01T10:19:03;6.80;99.90
28823;DHT22;15961;54.678;9.110;2023-02-01T10:21:58;7.00;99.90
28823;DHT22;15961;54.678;9.110;2023-02-01T10:24:41;7.00;99.90
28823;DHT22;15961;54.678;9.110;2023-02-01T10:27:19;6.70;99.90
28823;DHT22;15961;54.678;9.110;2023-02-01T10:29:51;6.30;99.90
28823;DHT22;15961;54.678;9.110;2023-02-01T10:32:21;6.20;99.90
28823;DHT22;15961;54.678;9.110;2023-02-01T10:34:55;6.10;99.90
28823;DHT22;15961;54.678;9.110;2023-02-01T10:37:28;6.10;99.90
28823;DHT22;15961;54.678;9.110;2023-02-01T10:40:12;6.00;99.90
28823;DHT22;15961;54.678;9.110;2023-02-01T10:42:39;6.10;99.90
28823;DHT22;15961;54.678;9.110;2023-02-01T10:45:06;6.10;99.90
28823;DHT22;15961;54.678;9.110;2023-02-01T10:47:32;6.20;99.90
28823;DHT22;15961;54.678;9.110;2023-02-01T10:52:39;6.20;99.90
28823;DHT22;15961;54.678;9.110;2023-02-01T10:55:26;5.90;99.90
28823;DHT22;15961;54.678;9.110;2023-02-01T10:58:03;5.80;99.90
28823;DHT22;15961;54.678;9.110;2023-02-01T11:00:40;5.70;99.90
28823;DHT22;15961;54.678;9.110;2023-02-01T11:05:51;4.50;99.90
28823;DHT22;15961;54.678;9.110;2023-02-01T11:08:17;4.00;99.90
28823;DHT22;15961;54.678;9.110;2023-02-01T11:10:44;4.00;99.90
28823;DHT22;15961;54.678;9.110;2023-02-01T11:13:15;4.20;99.90
28823;DHT22;15961;54.678;9.110;2023-02-01T11:15:46;4.40;99.90
28823;DHT22;15961;54.678;9.110;2023-02-01T11:18:26;4.80;99.90
28823;DHT22;15961;54.678;9.110;2023-02-01T11:20:52;5.00;99.90
28823;DHT22;15961;54.678;9.110;2023-02-01T11:23:22;5.10;99.90
28823;DHT22;15961;54.678;9.110;2023-02-01T11:25:53;5.10;99.90
28823;DHT22;15961;54.678;9.110;2023-02-01T11:28:23;5.20;99.90
28823;DHT22;15961;54.678;9.110;2023-02-01T11:30:51;5.20;99.90
28823;DHT22;15961;54.678;9.110;2023-02-01T11:33:20;5.30;99.90
28823;DHT22;15961;54.678;9.110;2023-02-01T11:35:51;5.30;99.90
28823;DHT22;15961;54.678;9.110;2023-02-01T11:38:26;5.40;99.90
28823;DHT22;15961;54.678;9.110;2023-02-01T11:40:52;5.50;99.90
28823;DHT22;15961;54.678;9.110;2023-02-01T11:43:26;5.60;99.90
28823;DHT22;15961;54.678;9.110;2023-02-01T11:45:58;5.70;99.90
28823;DHT22;15961;54.678;9.110;2023-02-01T11:48:26;5.70;99.90
28823;DHT22;15961;54.678;9.110;2023-02-01T11:59:12;6.10;99.90
28823;DHT22;15961;54.678;9.110;2023-02-01T12:07:19;6.00;99.90
28823;DHT22;15961;54.678;9.110;2023-02-01T12:15:27;5.60;99.90
28823;DHT22;15961;54.678;9.110;2023-02-01T12:26:35;5.10;99.90
28823;DHT22;15961;54.678;9.110;2023-02-01T12:29:58;5.10;99.90
28823;DHT22;15961;54.678;9.110;2023-02-01T12:32:06;5.10;99.90
28823;DHT22;15961;54.678;9.110;2023-02-01T12:40:32;5.40;99.90
28823;DHT22;15961;54.678;9.110;2023-02-01T12:43:05;5.60;99.90
28823;DHT22;15961;54.678;9.110;2023-02-01T12:45:42;5.70;99.90
28823;DHT22;15961;54.678;9.110;2023-02-01T12:51:07;5.80;99.90
28823;DHT22;15961;54.678;9.110;2023-02-01T12:53:55;5.90;99.90
28823;DHT22;15961;54.678;9.110;2023-02-01T12:56:26;6.00;99.90
28823;DHT22;15961;54.678;9.110;2023-02-01T12:58:54;6.00;99.90
28823;DHT22;15961;54.678;9.110;2023-02-01T13:01:46;6.00;99.90
28823;DHT22;15961;54.678;9.110;2023-02-01T13:04:23;5.90;99.90
28823;DHT22;15961;54.678;9.110;2023-02-01T13:07:01;5.90;99.90
28823;DHT22;15961;54.678;9.110;2023-02-01T13:10:02;6.00;99.90
28823;DHT22;15961;54.678;9.110;2023-02-01T13:12:47;6.00;99.90
28823;DHT22;15961;54.678;9.110;2023-02-01T13:15:20;6.30;99.90
28823;DHT22;15961;54.678;9.110;2023-02-01T13:17:47;6.40;99.90
28823;DHT22;15961;54.678;9.110;2023-02-01T13:20:26;6.40;99.90
28823;DHT22;15961;54.678;9.110;2023-02-01T13:23:04;6.40;99.90
28823;DHT22;15961;54.678;9.110;2023-02-01T13:25:50;6.50;99.90
28823;DHT22;15961;54.678;9.110;2023-02-01T13:36:27;6.60;99.90
28823;DHT22;15961;54.678;9.110;2023-02-01T13:44:42;6.60;99.90
28823;DHT22;15961;54.678;9.110;2023-02-01T13:47:28;6.60;99.90
28823;DHT22;15961;54.678;9.110;2023-02-01T13:49:57;6.50;99.90
28823;DHT22;15961;54.678;9.110;2023-02-01T13:52:32;6.40;99.90
28823;DHT22;15961;54.678;9.110;2023-02-01T13:55:30;6.30;99.90
28823;DHT22;15961;54.678;9.110;2023-02-01T14:00:36;6.10;99.90
28823;DHT22;15961;54.678;9.110;2023-02-01T14:03:06;6.00;99.90
28823;DHT22;15961;54.678;9.110;2023-02-01T14:10:59;6.10;99.90
28823;DHT22;15961;54.678;9.110;2023-02-01T14:21:18;6.80;99.90
28823;DHT22;15961;54.678;9.110;2023-02-01T14:23:46;6.90;99.90
28823;DHT22;15961;54.678;9.110;2023-02-01T14:26:18;6.80;99.90
28823;DHT22;15961;54.678;9.110;2023-02-01T14:31:40;6.60;99.90
28823;DHT22;15961;54.678;9.110;2023-02-01T14:34:20;6.50;99.90
28823;DHT22;15961;54.678;9.110;2023-02-01T14:36:57;6.50;99.90
28823;DHT22;15961;54.678;9.110;2023-02-01T14:39:30;6.50;99.90
28823;DHT22;15961;54.678;9.110;2023-02-01T14:42:00;6.50;99.90
28823;DHT22;15961;54.678;9.110;2023-02-01T14:44:29;6.70;99.90
28823;DHT22;15961;54.678;9.110;2023-02-01T14:52:37;6.70;99.90
28823;DHT22;15961;54.678;9.110;2023-02-01T14:55:18;6.60;99.90
28823;DHT22;15961;54.678;9.110;2023-02-01T14:57:47;6.60;99.90
28823;DHT22;15961;54.678;9.110;2023-02-01T15:00:25;6.60;99.90
28823;DHT22;15961;54.678;9.110;2023-02-01T15:02:53;6.60;99.90
28823;DHT22;15961;54.678;9.110;2023-02-01T15:07:50;6.60;99.90
28823;DHT22;15961;54.678;9.110;2023-02-01T15:10:17;6.60;99.90
28823;DHT22;15961;54.678;9.110;2023-02-01T15:12:45;6.50;99.90
28823;DHT22;15961;54.678;9.110;2023-02-01T15:15:20;6.50;99.90
28823;DHT22;15961;54.678;9.110;2023-02-01T15:17:59;6.50;99.90
28823;DHT22;15961;54.678;9.110;2023-02-01T15:20:32;6.50;99.90
28823;DHT22;15961;54.678;9.110;2023-02-01T15:23:14;6.50;99.90
28823;DHT22;15961;54.678;9.110;2023-02-01T15:25:40;6.40;99.90
28823;DHT22;15961;54.678;9.110;2023-02-01T15:28:13;6.10;99.90
28823;DHT22;15961;54.678;9.110;2023-02-01T15:30:39;5.90;99.90
28823;DHT22;15961;54.678;9.110;2023-02-01T15:35:50;5.40;99.90
28823;DHT22;15961;54.678;9.110;2023-02-01T15:49:03;4.80;99.90
28823;DHT22;15961;54.678;9.110;2023-02-01T15:51:31;4.70;99.90
28823;DHT22;15961;54.678;9.110;2023-02-01T15:54:07;4.70;99.90
28823;DHT22;15961;54.678;9.110;2023-02-01T15:56:40;4.80;99.90
28823;DHT22;15961;54.678;9.110;2023-02-01T15:59:14;4.90;99.90
28823;DHT22;15961;54.678;9.110;2023-02-01T16:01:40;5.00;99.90
28823;DHT22;15961;54.678;9.110;2023-02-01T16:04:23;5.10;99.90
28823;DHT22;15961;54.678;9.110;2023-02-01T16:06:51;5.20;99.90
28823;DHT22;15961;54.678;9.110;2023-02-01T16:09:22;5.40;99.90
28823;DHT22;15961;54.678;9.110;2023-02-01T16:11:56;5.40;99.90
28823;DHT22;15961;54.678;9.110;2023-02-01T16:14:22;5.40;99.90
28823;DHT22;15961;54.678;9.110;2023-02-01T16:16:48;5.50;99.90
28823;DHT22;15961;54.678;9.110;2023-02-01T16:19:14;5.50;99.90
28823;DHT22;15961;54.678;9.110;2023-02-01T16:21:40;5.50;99.90
28823;DHT22;15961;54.678;9.110;2023-02-01T16:24:05;5.50;99.90
28823;DHT22;15961;54.678;9.110;2023-02-01T16:26:32;5.60;99.90
28823;DHT22;15961;54.678;9.110;2023-02-01T16:28:59;5.60;99.90
28823;DHT22;15961;54.678;9.110;2023-02-01T16:31:29;5.70;99.90
28823;DHT22;15961;54.678;9.110;2023-02-01T16:33:55;5.70;99.90
28823;DHT22;15961;54.678;9.110;2023-02-01T16:36:21;5.60;99.90
28823;DHT22;15961;54.678;9.110;2023-02-01T16:38:48;5.40;99.90
28823;DHT22;15961;54.678;9.110;2023-02-01T16:41:17;5.20;99.90
28823;DHT22;15961;54.678;9.110;2023-02-01T16:43:42;5.10;99.90
28823;DHT22;15961;54.678;9.110;2023-02-01T16:46:19;5.00;99.90
28823;DHT22;15961;54.678;9.110;2023-02-01T16:48:56;5.00;99.90
28823;DHT22;15961;54.678;9.110;2023-02-01T16:51:24;5.10;99.90
28823;DHT22;15961;54.678;9.110;2023-02-01T16:53:51;5.10;99.90
28823;DHT22;15961;54.678;9.110;2023-02-01T16:56:22;5.10;99.90
28823;DHT22;15961;54.678;9.110;2023-02-01T16:58:48;5.10;99.90
28823;DHT22;15961;54.678;9.110;2023-02-01T17:01:16;5.20;99.90
28823;DHT22;15961;54.678;9.110;2023-02-01T17:03:42;5.20;99.90
28823;DHT22;15961;54.678;9.110;2023-02-01T17:06:13;5.30;99.90
28823;DHT22;15961;54.678;9.110;2023-02-01T17:08:45;5.40;99.90
28823;DHT22;15961;54.678;9.110;2023-02-01T17:11:12;5.40;99.90
28823;DHT22;15961;54.678;9.110;2023-02-01T17:13:39;5.50;99.90
28823;DHT22;15961;54.678;9.110;2023-02-01T17:16:26;5.60;99.90
28823;DHT22;15961;54.678;9.110;2023-02-01T17:19:04;5.50;99.90
28823;DHT22;15961;54.678;9.110;2023-02-01T17:21:38;5.60;99.90
28823;DHT22;15961;54.678;9.110;2023-02-01T17:24:05;5.50;99.90
28823;DHT22;15961;54.678;9.110;2023-02-01T17:26:30;5.50;99.90
28823;DHT22;15961;54.678;9.110;2023-02-01T17:28:56;5.50;99.90
28823;DHT22;15961;54.678;9.110;2023-02-01T17:31:22;5.50;99.90
28823;DHT22;15961;54.678;9.110;2023-02-01T17:33:48;5.40;99.90
28823;DHT22;15961;54.678;9.110;2023-02-01T17:36:15;5.40;99.90
28823;DHT22;15961;54.678;9.110;2023-02-01T17:38:41;5.30;99.90
28823;DHT22;15961;54.678;9.110;2023-02-01T17:41:10;5.20;99.90
28823;DHT22;15961;54.678;9.110;2023-02-01T17:43:36;5.10;99.90
28823;DHT22;15961;54.678;9.110;2023-02-01T17:46:13;5.00;99.90
28823;DHT22;15961;54.678;9.110;2023-02-01T17:48:39;5.00;99.90
28823;DHT22;15961;54.678;9.110;2023-02-01T17:51:19;5.00;99.90
28823;DHT22;15961;54.678;9.110;2023-02-01T17:53:45;4.90;99.90
28823;DHT22;15961;54.678;9.110;2023-02-01T17:56:15;5.00;99.90
28823;DHT22;15961;54.678;9.110;2023-02-01T17:58:42;4.90;99.90
28823;DHT22;15961;54.678;9.110;2023-02-01T18:01:17;4.90;99.90
28823;DHT22;15961;54.678;9.110;2023-02-01T18:03:42;4.90;99.90
28823;DHT22;15961;54.678;9.110;2023-02-01T18:06:16;4.90;99.90
28823;DHT22;15961;54.678;9.110;2023-02-01T18:08:42;4.90;99.90
28823;DHT22;15961;54.678;9.110;2023-02-01T18:11:14;4.90;99.90
28823;DHT22;15961;54.678;9.110;2023-02-01T18:13:41;4.90;99.90
28823;DHT22;15961;54.678;9.110;2023-02-01T18:16:16;4.90;99.90
28823;DHT22;15961;54.678;9.110;2023-02-01T18:18:42;5.00;99.90
28823;DHT22;15961;54.678;9.110;2023-02-01T18:21:08;5.10;99.90